Aviation Digital Data Service (ADDS)

Output produced by METARs form (2333 UTC 23 May 2022)
found at http://www.aviationweather.gov/metar/data/
 
SEGU 232235Z 2318/2418 16004KT 9999 FEW023 SCT100 
     BECMG 2400/2402 BKN023 BKN100 
     BECMG 2405/2407 22010KT FEW010 SCT026 BKN100 
     BECMG 2412/2414 22006KT FEW026 TX29/2320Z TN23/2411Z
       
SELT 232235Z 2318/2418 17012KT 9999 SCT030 
     BECMG 2323/2401 19004KT 
     BECMG 2406/2408 SCT010 BKN026 
     BECMG 2412/2414 VRB03KT BKN020 TX19/2319Z TN07/2411Z
       
SEMT 232235Z 2318/2418 24010KT 9999 SCT020 
     BECMG 2400/2402 BKN020 
     BECMG 2404/2406 OVC020 
     BECMG 2412/2414 BKN020 TX29/2320Z TN23/2411Z
       
SEQM 232235Z 2318/2418 36010KT 9999 SCT030 BKN200 
     TEMPO 2320/2322 SCT020TCU SCT030 
     BECMG 2400/2402 03004KT BKN030 
     BECMG 2405/2407 6000 BCFG BKN005 
     FM241200 VB03KT 9999 SCT020 SCT300 TX22/2319Z TN12/2411Z